sensor_id;sensor_type;location;lat;lon;timestamp;temperature;humidity
1391;DHT22;690;51.454;7.194;2023-02-28T00:01:11;2.60;99.90
1391;DHT22;690;51.454;7.194;2023-02-28T00:03:38;2.50;99.90
1391;DHT22;690;51.454;7.194;2023-02-28T00:06:08;2.50;99.90
1391;DHT22;690;51.454;7.194;2023-02-28T00:08:35;2.60;99.90
1391;DHT22;690;51.454;7.194;2023-02-28T00:11:03;2.50;99.90
1391;DHT22;690;51.454;7.194;2023-02-28T00:13:31;2.50;99.90
1391;DHT22;690;51.454;7.194;2023-02-28T00:16:02;2.60;99.90
1391;DHT22;690;51.454;7.194;2023-02-28T00:18:29;2.50;99.90
1391;DHT22;690;51.454;7.194;2023-02-28T00:20:56;2.50;99.90
1391;DHT22;690;51.454;7.194;2023-02-28T00:23:24;2.50;99.90
1391;DHT22;690;51.454;7.194;2023-02-28T00:25:51;2.50;99.90
1391;DHT22;690;51.454;7.194;2023-02-28T00:28:18;2.50;99.90
1391;DHT22;690;51.454;7.194;2023-02-28T00:30:45;2.50;99.90
1391;DHT22;690;51.454;7.194;2023-02-28T00:33:13;2.40;99.90
1391;DHT22;690;51.454;7.194;2023-02-28T00:35:40;2.40;99.90
1391;DHT22;690;51.454;7.194;2023-02-28T00:38:07;2.40;99.90
1391;DHT22;690;51.454;7.194;2023-02-28T00:40:35;2.40;99.90
1391;DHT22;690;51.454;7.194;2023-02-28T00:43:02;2.40;99.90
1391;DHT22;690;51.454;7.194;2023-02-28T00:45:29;2.40;99.90
1391;DHT22;690;51.454;7.194;2023-02-28T00:47:56;2.30;99.90
1391;DHT22;690;51.454;7.194;2023-02-28T00:50:23;2.30;99.90
1391;DHT22;690;51.454;7.194;2023-02-28T00:52:50;2.30;99.90
1391;DHT22;690;51.454;7.194;2023-02-28T00:55:17;2.30;99.90
1391;DHT22;690;51.454;7.194;2023-02-28T00:57:45;2.30;99.90
1391;DHT22;690;51.454;7.194;2023-02-28T01:00:13;2.30;99.90
1391;DHT22;690;51.454;7.194;2023-02-28T01:02:39;2.20;99.90
1391;DHT22;690;51.454;7.194;2023-02-28T01:05:07;2.20;99.90
1391;DHT22;690;51.454;7.194;2023-02-28T01:07:34;2.20;99.90
1391;DHT22;690;51.454;7.194;2023-02-28T01:10:01;2.20;99.90
1391;DHT22;690;51.454;7.194;2023-02-28T01:12:28;2.20;99.90
1391;DHT22;690;51.454;7.194;2023-02-28T01:14:56;2.20;99.90
1391;DHT22;690;51.454;7.194;2023-02-28T01:17:23;2.20;99.90
1391;DHT22;690;51.454;7.194;2023-02-28T01:19:53;2.20;99.90
1391;DHT22;690;51.454;7.194;2023-02-28T01:22:20;2.20;99.90
1391;DHT22;690;51.454;7.194;2023-02-28T01:24:47;2.20;99.90
1391;DHT22;690;51.454;7.194;2023-02-28T01:27:14;2.20;99.90
1391;DHT22;690;51.454;7.194;2023-02-28T01:29:41;2.20;99.90
1391;DHT22;690;51.454;7.194;2023-02-28T01:32:09;2.20;99.90
1391;DHT22;690;51.454;7.194;2023-02-28T01:34:36;2.20;99.90
1391;DHT22;690;51.454;7.194;2023-02-28T01:37:03;2.20;99.90
1391;DHT22;690;51.454;7.194;2023-02-28T01:39:30;2.20;99.90
1391;DHT22;690;51.454;7.194;2023-02-28T01:41:56;2.20;99.90
1391;DHT22;690;51.454;7.194;2023-02-28T01:44:55;2.20;99.90
1391;DHT22;690;51.454;7.194;2023-02-28T01:47:27;2.20;99.90
1391;DHT22;690;51.454;7.194;2023-02-28T01:49:55;2.10;99.90
1391;DHT22;690;51.454;7.194;2023-02-28T01:52:23;2.20;99.90
1391;DHT22;690;51.454;7.194;2023-02-28T01:54:52;2.10;99.90
1391;DHT22;690;51.454;7.194;2023-02-28T01:57:24;2.10;99.90
1391;DHT22;690;51.454;7.194;2023-02-28T01:59:54;2.10;99.90
1391;DHT22;690;51.454;7.194;2023-02-28T02:02:26;2.10;99.90
1391;DHT22;690;51.454;7.194;2023-02-28T02:04:56;2.00;99.90
1391;DHT22;690;51.454;7.194;2023-02-28T02:07:30;2.00;99.90
1391;DHT22;690;51.454;7.194;2023-02-28T02:10:03;2.00;99.90
1391;DHT22;690;51.454;7.194;2023-02-28T02:12:40;1.90;99.90
1391;DHT22;690;51.454;7.194;2023-02-28T02:15:12;1.90;99.90
1391;DHT22;690;51.454;7.194;2023-02-28T02:17:45;1.90;99.90
1391;DHT22;690;51.454;7.194;2023-02-28T02:20:38;1.90;99.90
1391;DHT22;690;51.454;7.194;2023-02-28T02:23:49;1.90;99.90
1391;DHT22;690;51.454;7.194;2023-02-28T02:29:53;1.80;99.90
1391;DHT22;690;51.454;7.194;2023-02-28T02:33:02;1.80;99.90
1391;DHT22;690;51.454;7.194;2023-02-28T02:35:39;1.80;99.90
1391;DHT22;690;51.454;7.194;2023-02-28T02:38:10;1.70;99.90
1391;DHT22;690;51.454;7.194;2023-02-28T02:40:44;1.70;99.90
1391;DHT22;690;51.454;7.194;2023-02-28T02:43:18;1.70;99.90
1391;DHT22;690;51.454;7.194;2023-02-28T02:45:50;1.70;99.90
1391;DHT22;690;51.454;7.194;2023-02-28T02:48:21;1.70;99.90
1391;DHT22;690;51.454;7.194;2023-02-28T02:50:55;1.70;99.90
1391;DHT22;690;51.454;7.194;2023-02-28T02:53:27;1.70;99.90
1391;DHT22;690;51.454;7.194;2023-02-28T02:55:56;1.70;99.90
1391;DHT22;690;51.454;7.194;2023-02-28T02:58:28;1.60;99.90
1391;DHT22;690;51.454;7.194;2023-02-28T03:01:00;1.60;99.90
1391;DHT22;690;51.454;7.194;2023-02-28T03:03:29;1.60;99.90
1391;DHT22;690;51.454;7.194;2023-02-28T03:06:00;1.60;99.90
1391;DHT22;690;51.454;7.194;2023-02-28T03:08:29;1.60;99.90
1391;DHT22;690;51.454;7.194;2023-02-28T03:11:01;1.60;99.90
1391;DHT22;690;51.454;7.194;2023-02-28T03:16:34;1.50;99.90
1391;DHT22;690;51.454;7.194;2023-02-28T03:19:21;1.50;99.90
1391;DHT22;690;51.454;7.194;2023-02-28T03:22:00;1.50;99.90
1391;DHT22;690;51.454;7.194;2023-02-28T03:24:35;1.40;99.90
1391;DHT22;690;51.454;7.194;2023-02-28T03:27:10;1.40;99.90
1391;DHT22;690;51.454;7.194;2023-02-28T03:29:42;1.40;99.90
1391;DHT22;690;51.454;7.194;2023-02-28T03:32:16;1.40;99.90
1391;DHT22;690;51.454;7.194;2023-02-28T03:34:50;1.40;99.90
1391;DHT22;690;51.454;7.194;2023-02-28T03:37:24;1.40;99.90
1391;DHT22;690;51.454;7.194;2023-02-28T03:39:56;1.30;99.90
1391;DHT22;690;51.454;7.194;2023-02-28T03:42:25;1.30;99.90
1391;DHT22;690;51.454;7.194;2023-02-28T03:44:56;1.30;99.90
1391;DHT22;690;51.454;7.194;2023-02-28T03:47:29;1.30;99.90
1391;DHT22;690;51.454;7.194;2023-02-28T03:50:01;1.30;99.90
1391;DHT22;690;51.454;7.194;2023-02-28T03:52:34;1.30;99.90
1391;DHT22;690;51.454;7.194;2023-02-28T03:55:04;1.30;99.90
1391;DHT22;690;51.454;7.194;2023-02-28T03:57:37;1.20;99.90
1391;DHT22;690;51.454;7.194;2023-02-28T04:00:09;1.20;99.90
1391;DHT22;690;51.454;7.194;2023-02-28T04:02:37;1.20;99.90
1391;DHT22;690;51.454;7.194;2023-02-28T04:05:05;1.20;99.90
1391;DHT22;690;51.454;7.194;2023-02-28T04:07:34;1.20;99.90
1391;DHT22;690;51.454;7.194;2023-02-28T04:10:00;1.10;99.90
1391;DHT22;690;51.454;7.194;2023-02-28T04:12:27;1.10;99.90
1391;DHT22;690;51.454;7.194;2023-02-28T04:14:54;1.10;99.90
1391;DHT22;690;51.454;7.194;2023-02-28T04:17:21;1.10;99.90
1391;DHT22;690;51.454;7.194;2023-02-28T04:19:48;1.10;99.90
1391;DHT22;690;51.454;7.194;2023-02-28T04:22:15;1.10;99.90
1391;DHT22;690;51.454;7.194;2023-02-28T04:24:44;1.00;99.90
1391;DHT22;690;51.454;7.194;2023-02-28T04:27:11;1.00;99.90
1391;DHT22;690;51.454;7.194;2023-02-28T04:29:38;1.00;99.90
1391;DHT22;690;51.454;7.194;2023-02-28T04:32:05;1.00;99.90
1391;DHT22;690;51.454;7.194;2023-02-28T04:34:32;1.00;99.90
1391;DHT22;690;51.454;7.194;2023-02-28T04:36:59;1.00;99.90
1391;DHT22;690;51.454;7.194;2023-02-28T04:39:26;1.00;99.90
1391;DHT22;690;51.454;7.194;2023-02-28T04:41:54;1.00;99.90
1391;DHT22;690;51.454;7.194;2023-02-28T04:44:22;0.90;99.90
1391;DHT22;690;51.454;7.194;2023-02-28T04:46:49;0.90;99.90
1391;DHT22;690;51.454;7.194;2023-02-28T04:49:16;0.90;99.90
1391;DHT22;690;51.454;7.194;2023-02-28T04:51:43;0.90;99.90
1391;DHT22;690;51.454;7.194;2023-02-28T04:54:09;0.80;99.90
1391;DHT22;690;51.454;7.194;2023-02-28T04:56:36;0.80;99.90
1391;DHT22;690;51.454;7.194;2023-02-28T04:59:04;0.80;99.90
1391;DHT22;690;51.454;7.194;2023-02-28T05:01:33;0.80;99.90
1391;DHT22;690;51.454;7.194;2023-02-28T05:04:02;0.80;99.90
1391;DHT22;690;51.454;7.194;2023-02-28T05:06:32;0.80;99.90
1391;DHT22;690;51.454;7.194;2023-02-28T05:09:00;0.80;99.90
1391;DHT22;690;51.454;7.194;2023-02-28T05:11:29;0.70;99.90
1391;DHT22;690;51.454;7.194;2023-02-28T05:14:00;0.70;99.90
1391;DHT22;690;51.454;7.194;2023-02-28T05:16:28;0.70;99.90
1391;DHT22;690;51.454;7.194;2023-02-28T05:18:55;0.70;99.90
1391;DHT22;690;51.454;7.194;2023-02-28T05:21:25;0.70;99.90
1391;DHT22;690;51.454;7.194;2023-02-28T05:23:53;0.70;99.90
1391;DHT22;690;51.454;7.194;2023-02-28T05:26:20;0.70;99.90
1391;DHT22;690;51.454;7.194;2023-02-28T05:28:47;0.70;99.90
1391;DHT22;690;51.454;7.194;2023-02-28T05:31:14;0.70;99.90
1391;DHT22;690;51.454;7.194;2023-02-28T05:33:43;0.70;99.90
1391;DHT22;690;51.454;7.194;2023-02-28T05:36:10;0.70;99.90
1391;DHT22;690;51.454;7.194;2023-02-28T05:38:36;0.70;99.90
1391;DHT22;690;51.454;7.194;2023-02-28T05:41:07;0.70;99.90
1391;DHT22;690;51.454;7.194;2023-02-28T05:43:35;0.60;99.90
1391;DHT22;690;51.454;7.194;2023-02-28T05:46:04;0.70;99.90
1391;DHT22;690;51.454;7.194;2023-02-28T05:48:31;0.70;99.90
1391;DHT22;690;51.454;7.194;2023-02-28T05:50:59;0.60;99.90
1391;DHT22;690;51.454;7.194;2023-02-28T05:53:26;0.60;99.90
1391;DHT22;690;51.454;7.194;2023-02-28T05:55:53;0.60;99.90
1391;DHT22;690;51.454;7.194;2023-02-28T05:58:21;0.60;99.90
1391;DHT22;690;51.454;7.194;2023-02-28T06:00:48;0.60;99.90
1391;DHT22;690;51.454;7.194;2023-02-28T06:03:14;0.50;99.90
1391;DHT22;690;51.454;7.194;2023-02-28T06:05:41;0.50;99.90
1391;DHT22;690;51.454;7.194;2023-02-28T06:08:09;0.50;99.90
1391;DHT22;690;51.454;7.194;2023-02-28T06:10:36;0.50;99.90
1391;DHT22;690;51.454;7.194;2023-02-28T06:13:04;0.50;99.90
1391;DHT22;690;51.454;7.194;2023-02-28T06:15:31;0.50;99.90
1391;DHT22;690;51.454;7.194;2023-02-28T06:17:58;0.50;99.90
1391;DHT22;690;51.454;7.194;2023-02-28T06:20:27;0.50;99.90
1391;DHT22;690;51.454;7.194;2023-02-28T06:22:55;0.50;99.90
1391;DHT22;690;51.454;7.194;2023-02-28T06:25:25;0.50;99.90
1391;DHT22;690;51.454;7.194;2023-02-28T06:27:52;0.40;99.90
1391;DHT22;690;51.454;7.194;2023-02-28T06:30:20;0.40;99.90
1391;DHT22;690;51.454;7.194;2023-02-28T06:32:49;0.40;99.90
1391;DHT22;690;51.454;7.194;2023-02-28T06:35:16;0.40;99.90
1391;DHT22;690;51.454;7.194;2023-02-28T06:37:43;0.40;99.90
1391;DHT22;690;51.454;7.194;2023-02-28T06:40:11;0.40;99.90
1391;DHT22;690;51.454;7.194;2023-02-28T06:42:39;0.40;99.90
1391;DHT22;690;51.454;7.194;2023-02-28T06:45:07;0.40;99.90
1391;DHT22;690;51.454;7.194;2023-02-28T06:47:35;0.50;99.90
1391;DHT22;690;51.454;7.194;2023-02-28T06:50:02;0.50;99.90
1391;DHT22;690;51.454;7.194;2023-02-28T06:52:30;0.50;99.90
1391;DHT22;690;51.454;7.194;2023-02-28T06:54:57;0.50;99.90
1391;DHT22;690;51.454;7.194;2023-02-28T06:57:27;0.50;99.90
1391;DHT22;690;51.454;7.194;2023-02-28T06:59:57;0.50;99.90
1391;DHT22;690;51.454;7.194;2023-02-28T07:02:24;0.60;99.90
1391;DHT22;690;51.454;7.194;2023-02-28T07:04:52;0.60;99.90
1391;DHT22;690;51.454;7.194;2023-02-28T07:07:18;0.60;99.90
1391;DHT22;690;51.454;7.194;2023-02-28T07:09:45;0.70;99.90
1391;DHT22;690;51.454;7.194;2023-02-28T07:12:12;0.70;99.90
1391;DHT22;690;51.454;7.194;2023-02-28T07:14:39;0.70;99.90
1391;DHT22;690;51.454;7.194;2023-02-28T07:17:08;0.80;99.90
1391;DHT22;690;51.454;7.194;2023-02-28T07:19:37;0.80;99.90
1391;DHT22;690;51.454;7.194;2023-02-28T07:22:04;0.90;99.90
1391;DHT22;690;51.454;7.194;2023-02-28T07:24:31;0.90;99.90
1391;DHT22;690;51.454;7.194;2023-02-28T07:26:58;1.00;99.90
1391;DHT22;690;51.454;7.194;2023-02-28T07:29:26;1.00;99.90
1391;DHT22;690;51.454;7.194;2023-02-28T07:31:53;1.10;99.90
1391;DHT22;690;51.454;7.194;2023-02-28T07:34:22;1.10;99.90
1391;DHT22;690;51.454;7.194;2023-02-28T07:36:49;1.20;99.90
1391;DHT22;690;51.454;7.194;2023-02-28T07:39:19;1.20;99.90
1391;DHT22;690;51.454;7.194;2023-02-28T07:41:46;1.30;99.90
1391;DHT22;690;51.454;7.194;2023-02-28T07:44:13;1.30;99.90
1391;DHT22;690;51.454;7.194;2023-02-28T07:46:39;1.30;99.90
1391;DHT22;690;51.454;7.194;2023-02-28T07:49:06;1.40;99.90
1391;DHT22;690;51.454;7.194;2023-02-28T07:51:34;1.40;99.90
1391;DHT22;690;51.454;7.194;2023-02-28T07:54:02;1.40;99.90
1391;DHT22;690;51.454;7.194;2023-02-28T07:56:28;1.50;99.90
1391;DHT22;690;51.454;7.194;2023-02-28T07:58:55;1.50;99.90
1391;DHT22;690;51.454;7.194;2023-02-28T08:01:22;1.50;99.90
1391;DHT22;690;51.454;7.194;2023-02-28T08:03:49;1.50;99.90
1391;DHT22;690;51.454;7.194;2023-02-28T08:06:18;1.60;99.90
1391;DHT22;690;51.454;7.194;2023-02-28T08:08:47;1.60;99.90
1391;DHT22;690;51.454;7.194;2023-02-28T08:11:14;1.60;99.90
1391;DHT22;690;51.454;7.194;2023-02-28T08:13:42;1.60;99.90
1391;DHT22;690;51.454;7.194;2023-02-28T08:16:10;1.70;99.90
1391;DHT22;690;51.454;7.194;2023-02-28T08:18:37;1.70;99.90
1391;DHT22;690;51.454;7.194;2023-02-28T08:21:07;1.80;99.90
1391;DHT22;690;51.454;7.194;2023-02-28T08:23:34;1.90;99.90
1391;DHT22;690;51.454;7.194;2023-02-28T08:26:03;1.90;99.90
1391;DHT22;690;51.454;7.194;2023-02-28T08:28:31;2.00;99.90
1391;DHT22;690;51.454;7.194;2023-02-28T08:30:58;2.00;99.90
1391;DHT22;690;51.454;7.194;2023-02-28T08:33:26;2.10;99.90
1391;DHT22;690;51.454;7.194;2023-02-28T08:35:54;2.20;99.90
1391;DHT22;690;51.454;7.194;2023-02-28T08:38:21;2.30;99.90
1391;DHT22;690;51.454;7.194;2023-02-28T08:40:48;2.30;99.90
1391;DHT22;690;51.454;7.194;2023-02-28T08:43:16;2.40;99.90
1391;DHT22;690;51.454;7.194;2023-02-28T08:45:43;2.50;99.90
1391;DHT22;690;51.454;7.194;2023-02-28T08:48:09;2.50;99.90
1391;DHT22;690;51.454;7.194;2023-02-28T08:50:36;2.60;99.90
1391;DHT22;690;51.454;7.194;2023-02-28T08:53:03;2.70;99.90
1391;DHT22;690;51.454;7.194;2023-02-28T08:55:30;2.70;99.90
1391;DHT22;690;51.454;7.194;2023-02-28T08:57:57;2.80;99.90
1391;DHT22;690;51.454;7.194;2023-02-28T09:00:25;2.90;99.90
1391;DHT22;690;51.454;7.194;2023-02-28T09:02:52;3.00;99.90
1391;DHT22;690;51.454;7.194;2023-02-28T09:05:20;3.00;99.90
1391;DHT22;690;51.454;7.194;2023-02-28T09:07:47;3.10;99.90
1391;DHT22;690;51.454;7.194;2023-02-28T09:10:13;3.20;99.90
1391;DHT22;690;51.454;7.194;2023-02-28T09:12:40;3.30;99.90
1391;DHT22;690;51.454;7.194;2023-02-28T09:15:08;3.30;99.90
1391;DHT22;690;51.454;7.194;2023-02-28T09:17:36;3.40;99.90
1391;DHT22;690;51.454;7.194;2023-02-28T09:20:04;3.40;99.90
1391;DHT22;690;51.454;7.194;2023-02-28T09:22:31;3.50;99.90
1391;DHT22;690;51.454;7.194;2023-02-28T09:24:58;3.60;99.90
1391;DHT22;690;51.454;7.194;2023-02-28T09:27:25;3.70;99.90
1391;DHT22;690;51.454;7.194;2023-02-28T09:29:52;3.80;99.90
1391;DHT22;690;51.454;7.194;2023-02-28T09:32:19;3.80;99.90
1391;DHT22;690;51.454;7.194;2023-02-28T09:34:47;3.90;99.90
1391;DHT22;690;51.454;7.194;2023-02-28T09:37:14;4.00;99.90
1391;DHT22;690;51.454;7.194;2023-02-28T09:39:40;4.10;99.90
1391;DHT22;690;51.454;7.194;2023-02-28T09:42:18;4.10;99.90
1391;DHT22;690;51.454;7.194;2023-02-28T09:44:47;4.30;99.90
1391;DHT22;690;51.454;7.194;2023-02-28T09:47:21;4.40;99.90
1391;DHT22;690;51.454;7.194;2023-02-28T09:49:53;4.40;99.90
1391;DHT22;690;51.454;7.194;2023-02-28T09:52:28;4.50;99.90
1391;DHT22;690;51.454;7.194;2023-02-28T09:54:55;4.50;99.90
1391;DHT22;690;51.454;7.194;2023-02-28T09:57:35;4.60;99.90
1391;DHT22;690;51.454;7.194;2023-02-28T10:00:10;4.70;99.90
1391;DHT22;690;51.454;7.194;2023-02-28T10:02:49;4.80;99.90
1391;DHT22;690;51.454;7.194;2023-02-28T10:05:23;4.80;99.90
1391;DHT22;690;51.454;7.194;2023-02-28T10:08:00;4.90;99.90
1391;DHT22;690;51.454;7.194;2023-02-28T10:10:35;5.00;99.90
1391;DHT22;690;51.454;7.194;2023-02-28T10:13:06;5.10;99.90
1391;DHT22;690;51.454;7.194;2023-02-28T10:15:38;5.10;99.90
1391;DHT22;690;51.454;7.194;2023-02-28T10:18:11;5.20;99.90
1391;DHT22;690;51.454;7.194;2023-02-28T10:20:41;5.20;99.90
1391;DHT22;690;51.454;7.194;2023-02-28T10:23:13;5.30;99.90
1391;DHT22;690;51.454;7.194;2023-02-28T10:25:45;5.40;99.90
1391;DHT22;690;51.454;7.194;2023-02-28T10:28:15;5.50;99.90
1391;DHT22;690;51.454;7.194;2023-02-28T10:30:46;5.50;99.90
1391;DHT22;690;51.454;7.194;2023-02-28T10:33:19;5.50;99.90
1391;DHT22;690;51.454;7.194;2023-02-28T10:35:49;5.60;99.90
1391;DHT22;690;51.454;7.194;2023-02-28T10:38:23;5.60;99.90
1391;DHT22;690;51.454;7.194;2023-02-28T10:41:03;5.70;99.90
1391;DHT22;690;51.454;7.194;2023-02-28T10:43:30;5.80;99.90
1391;DHT22;690;51.454;7.194;2023-02-28T10:46:02;5.90;99.90
1391;DHT22;690;51.454;7.194;2023-02-28T10:48:34;5.90;99.90
1391;DHT22;690;51.454;7.194;2023-02-28T10:51:05;6.00;99.90
1391;DHT22;690;51.454;7.194;2023-02-28T10:53:45;6.00;99.90
1391;DHT22;690;51.454;7.194;2023-02-28T10:56:18;6.00;99.90
1391;DHT22;690;51.454;7.194;2023-02-28T10:58:50;6.10;99.90
1391;DHT22;690;51.454;7.194;2023-02-28T11:01:20;6.10;99.90
1391;DHT22;690;51.454;7.194;2023-02-28T11:03:47;6.10;99.90
1391;DHT22;690;51.454;7.194;2023-02-28T11:06:18;6.20;99.90
1391;DHT22;690;51.454;7.194;2023-02-28T11:08:48;6.20;99.90
1391;DHT22;690;51.454;7.194;2023-02-28T11:11:16;6.40;99.90
1391;DHT22;690;51.454;7.194;2023-02-28T11:13:44;6.50;99.90
1391;DHT22;690;51.454;7.194;2023-02-28T11:16:13;6.70;99.90
1391;DHT22;690;51.454;7.194;2023-02-28T11:18:44;6.80;99.90
1391;DHT22;690;51.454;7.194;2023-02-28T11:21:20;6.80;99.90
1391;DHT22;690;51.454;7.194;2023-02-28T11:23:51;6.80;99.90
1391;DHT22;690;51.454;7.194;2023-02-28T11:26:40;6.80;99.90
1391;DHT22;690;51.454;7.194;2023-02-28T11:29:16;6.90;99.90
1391;DHT22;690;51.454;7.194;2023-02-28T11:32:05;7.00;99.90
1391;DHT22;690;51.454;7.194;2023-02-28T11:34:33;7.00;99.90
1391;DHT22;690;51.454;7.194;2023-02-28T11:37:02;7.00;99.90
1391;DHT22;690;51.454;7.194;2023-02-28T11:39:31;7.10;99.90
1391;DHT22;690;51.454;7.194;2023-02-28T11:42:07;7.00;99.90
1391;DHT22;690;51.454;7.194;2023-02-28T11:44:45;7.00;99.90
1391;DHT22;690;51.454;7.194;2023-02-28T11:47:22;7.10;99.90
1391;DHT22;690;51.454;7.194;2023-02-28T11:50:00;7.20;99.90
1391;DHT22;690;51.454;7.194;2023-02-28T11:52:36;7.30;99.90
1391;DHT22;690;51.454;7.194;2023-02-28T11:55:14;7.40;99.90
1391;DHT22;690;51.454;7.194;2023-02-28T11:58:01;7.40;99.90
1391;DHT22;690;51.454;7.194;2023-02-28T12:00:48;7.50;99.90
1391;DHT22;690;51.454;7.194;2023-02-28T12:03:26;7.50;99.90
1391;DHT22;690;51.454;7.194;2023-02-28T12:06:01;7.50;99.90
1391;DHT22;690;51.454;7.194;2023-02-28T12:11:32;7.60;99.90
1391;DHT22;690;51.454;7.194;2023-02-28T12:17:06;7.70;99.90
1391;DHT22;690;51.454;7.194;2023-02-28T12:19:42;7.50;99.90
1391;DHT22;690;51.454;7.194;2023-02-28T12:22:29;7.40;99.90
1391;DHT22;690;51.454;7.194;2023-02-28T12:28:11;7.40;99.90
1391;DHT22;690;51.454;7.194;2023-02-28T12:30:42;7.30;99.90
1391;DHT22;690;51.454;7.194;2023-02-28T12:33:14;7.20;99.90
1391;DHT22;690;51.454;7.194;2023-02-28T12:35:47;7.20;99.90
1391;DHT22;690;51.454;7.194;2023-02-28T12:38:20;7.20;99.90
1391;DHT22;690;51.454;7.194;2023-02-28T12:40:51;7.20;99.90
1391;DHT22;690;51.454;7.194;2023-02-28T12:43:22;7.20;99.90
1391;DHT22;690;51.454;7.194;2023-02-28T12:45:55;7.20;99.90
1391;DHT22;690;51.454;7.194;2023-02-28T12:48:27;7.30;99.90
1391;DHT22;690;51.454;7.194;2023-02-28T12:50:56;7.40;99.90
1391;DHT22;690;51.454;7.194;2023-02-28T12:53:26;7.50;99.90
1391;DHT22;690;51.454;7.194;2023-02-28T12:56:07;7.50;99.90
1391;DHT22;690;51.454;7.194;2023-02-28T12:58:40;7.50;99.90
1391;DHT22;690;51.454;7.194;2023-02-28T13:01:33;7.50;99.90
1391;DHT22;690;51.454;7.194;2023-02-28T13:04:27;7.50;99.90
1391;DHT22;690;51.454;7.194;2023-02-28T13:07:15;7.50;99.90
1391;DHT22;690;51.454;7.194;2023-02-28T13:09:52;7.60;99.90
1391;DHT22;690;51.454;7.194;2023-02-28T13:12:20;7.70;99.90
1391;DHT22;690;51.454;7.194;2023-02-28T13:14:50;7.70;99.90
1391;DHT22;690;51.454;7.194;2023-02-28T13:17:19;7.90;99.90
1391;DHT22;690;51.454;7.194;2023-02-28T13:19:56;8.00;99.90
1391;DHT22;690;51.454;7.194;2023-02-28T13:22:39;8.00;99.90
1391;DHT22;690;51.454;7.194;2023-02-28T13:31:27;8.20;99.90
1391;DHT22;690;51.454;7.194;2023-02-28T13:34:14;8.20;99.90
1391;DHT22;690;51.454;7.194;2023-02-28T13:36:41;8.30;99.90
1391;DHT22;690;51.454;7.194;2023-02-28T13:42:33;8.50;99.90
1391;DHT22;690;51.454;7.194;2023-02-28T13:45:23;8.60;99.90
1391;DHT22;690;51.454;7.194;2023-02-28T13:47:58;8.60;99.90
1391;DHT22;690;51.454;7.194;2023-02-28T13:50:32;8.60;99.90
1391;DHT22;690;51.454;7.194;2023-02-28T13:53:32;8.70;99.90
1391;DHT22;690;51.454;7.194;2023-02-28T13:56:03;8.70;99.90
1391;DHT22;690;51.454;7.194;2023-02-28T13:58:42;8.70;99.90
1391;DHT22;690;51.454;7.194;2023-02-28T14:01:25;8.70;99.90
1391;DHT22;690;51.454;7.194;2023-02-28T14:04:11;8.80;99.90
1391;DHT22;690;51.454;7.194;2023-02-28T14:06:47;8.80;99.90
1391;DHT22;690;51.454;7.194;2023-02-28T14:09:23;8.90;99.90
1391;DHT22;690;51.454;7.194;2023-02-28T14:11:51;8.80;99.90
1391;DHT22;690;51.454;7.194;2023-02-28T14:14:55;8.80;99.90
1391;DHT22;690;51.454;7.194;2023-02-28T14:17:24;8.90;99.90
1391;DHT22;690;51.454;7.194;2023-02-28T14:19:53;9.00;99.90
1391;DHT22;690;51.454;7.194;2023-02-28T14:22:43;9.00;99.90
1391;DHT22;690;51.454;7.194;2023-02-28T14:25:21;9.00;99.90
1391;DHT22;690;51.454;7.194;2023-02-28T14:27:58;9.10;99.90
1391;DHT22;690;51.454;7.194;2023-02-28T14:30:57;8.90;99.90
1391;DHT22;690;51.454;7.194;2023-02-28T14:33:34;8.90;99.90
1391;DHT22;690;51.454;7.194;2023-02-28T14:36:10;9.00;99.90
1391;DHT22;690;51.454;7.194;2023-02-28T14:38:42;9.10;99.90
1391;DHT22;690;51.454;7.194;2023-02-28T14:41:19;9.10;99.90
1391;DHT22;690;51.454;7.194;2023-02-28T14:43:55;9.10;99.90
1391;DHT22;690;51.454;7.194;2023-02-28T14:46:25;9.00;99.90
1391;DHT22;690;51.454;7.194;2023-02-28T14:48:54;9.00;99.90
1391;DHT22;690;51.454;7.194;2023-02-28T14:51:23;9.00;99.90
1391;DHT22;690;51.454;7.194;2023-02-28T14:53:56;9.00;99.90
1391;DHT22;690;51.454;7.194;2023-02-28T14:56:26;8.90;99.90
1391;DHT22;690;51.454;7.194;2023-02-28T14:58:56;8.90;99.90
1391;DHT22;690;51.454;7.194;2023-02-28T15:01:25;8.90;99.90
1391;DHT22;690;51.454;7.194;2023-02-28T15:04:01;9.00;99.90
1391;DHT22;690;51.454;7.194;2023-02-28T15:06:30;8.90;99.90
1391;DHT22;690;51.454;7.194;2023-02-28T15:09:09;8.90;99.90
1391;DHT22;690;51.454;7.194;2023-02-28T15:11:37;8.90;99.90
1391;DHT22;690;51.454;7.194;2023-02-28T15:14:04;8.90;99.90
1391;DHT22;690;51.454;7.194;2023-02-28T15:16:35;8.90;99.90
1391;DHT22;690;51.454;7.194;2023-02-28T15:19:06;9.00;99.90
1391;DHT22;690;51.454;7.194;2023-02-28T15:21:37;9.00;99.90
1391;DHT22;690;51.454;7.194;2023-02-28T15:24:06;8.90;99.90
1391;DHT22;690;51.454;7.194;2023-02-28T15:26:37;8.90;99.90
1391;DHT22;690;51.454;7.194;2023-02-28T15:29:06;9.00;99.90
1391;DHT22;690;51.454;7.194;2023-02-28T15:31:35;9.00;99.90
1391;DHT22;690;51.454;7.194;2023-02-28T15:34:12;9.00;99.90
1391;DHT22;690;51.454;7.194;2023-02-28T15:36:44;8.80;99.90
1391;DHT22;690;51.454;7.194;2023-02-28T15:39:21;8.70;99.90
1391;DHT22;690;51.454;7.194;2023-02-28T15:41:49;8.50;99.90
1391;DHT22;690;51.454;7.194;2023-02-28T15:44:23;8.50;99.90
1391;DHT22;690;51.454;7.194;2023-02-28T15:46:58;8.40;99.90
1391;DHT22;690;51.454;7.194;2023-02-28T15:49:28;8.30;99.90
1391;DHT22;690;51.454;7.194;2023-02-28T15:51:59;8.30;99.90
1391;DHT22;690;51.454;7.194;2023-02-28T15:54:29;8.30;99.90
1391;DHT22;690;51.454;7.194;2023-02-28T15:56:59;8.30;99.90
1391;DHT22;690;51.454;7.194;2023-02-28T15:59:30;8.30;99.90
1391;DHT22;690;51.454;7.194;2023-02-28T16:02:13;8.40;99.90
1391;DHT22;690;51.454;7.194;2023-02-28T16:04:56;8.40;99.90
1391;DHT22;690;51.454;7.194;2023-02-28T16:07:24;8.40;99.90
1391;DHT22;690;51.454;7.194;2023-02-28T16:09:51;8.40;99.90
1391;DHT22;690;51.454;7.194;2023-02-28T16:12:19;8.40;99.90
1391;DHT22;690;51.454;7.194;2023-02-28T16:14:47;8.40;99.90
1391;DHT22;690;51.454;7.194;2023-02-28T16:17:20;8.50;99.90
1391;DHT22;690;51.454;7.194;2023-02-28T16:19:47;8.40;99.90
1391;DHT22;690;51.454;7.194;2023-02-28T16:22:14;8.40;99.90
1391;DHT22;690;51.454;7.194;2023-02-28T16:24:42;8.30;99.90
1391;DHT22;690;51.454;7.194;2023-02-28T16:27:16;8.30;99.90
1391;DHT22;690;51.454;7.194;2023-02-28T16:29:46;8.20;99.90
1391;DHT22;690;51.454;7.194;2023-02-28T16:32:14;8.20;99.90
1391;DHT22;690;51.454;7.194;2023-02-28T16:34:42;8.10;99.90
1391;DHT22;690;51.454;7.194;2023-02-28T16:37:13;8.00;99.90
1391;DHT22;690;51.454;7.194;2023-02-28T16:39:43;7.90;99.90
1391;DHT22;690;51.454;7.194;2023-02-28T16:42:15;7.90;99.90
1391;DHT22;690;51.454;7.194;2023-02-28T16:44:42;7.80;99.90
1391;DHT22;690;51.454;7.194;2023-02-28T16:47:10;7.70;99.90
1391;DHT22;690;51.454;7.194;2023-02-28T16:49:37;7.70;99.90
1391;DHT22;690;51.454;7.194;2023-02-28T16:52:05;7.60;99.90
1391;DHT22;690;51.454;7.194;2023-02-28T16:54:32;7.60;99.90
1391;DHT22;690;51.454;7.194;2023-02-28T16:57:00;7.50;99.90
1391;DHT22;690;51.454;7.194;2023-02-28T16:59:27;7.50;99.90
1391;DHT22;690;51.454;7.194;2023-02-28T17:01:56;7.40;99.90
1391;DHT22;690;51.454;7.194;2023-02-28T17:04:24;7.40;99.90
1391;DHT22;690;51.454;7.194;2023-02-28T17:06:51;7.30;99.90
1391;DHT22;690;51.454;7.194;2023-02-28T17:09:19;7.30;99.90
1391;DHT22;690;51.454;7.194;2023-02-28T17:11:47;7.20;99.90
1391;DHT22;690;51.454;7.194;2023-02-28T17:14:16;7.10;99.90
1391;DHT22;690;51.454;7.194;2023-02-28T17:16:43;7.10;99.90
1391;DHT22;690;51.454;7.194;2023-02-28T17:19:12;7.00;99.90
1391;DHT22;690;51.454;7.194;2023-02-28T17:21:39;6.90;99.90
1391;DHT22;690;51.454;7.194;2023-02-28T17:24:08;6.90;99.90